createdAt,value
2022-12-12T00:00:15.276Z,18.13
2022-12-12T00:02:42.862Z,19.40
2022-12-12T00:05:14.260Z,20.10
2022-12-12T00:07:41.585Z,19.93
2022-12-12T00:10:09.664Z,19.00
2022-12-12T00:12:36.738Z,18.50
2022-12-12T00:15:04.202Z,18.93
2022-12-12T00:17:30.984Z,19.60
2022-12-12T00:19:57.815Z,19.37
2022-12-12T00:22:24.620Z,20.43
2022-12-12T00:24:51.571Z,20.37
2022-12-12T00:27:18.388Z,20.27
2022-12-12T00:29:45.258Z,17.50
2022-12-12T00:32:12.062Z,20.90
2022-12-12T00:34:38.898Z,21.30
2022-12-12T00:37:05.645Z,19.73
2022-12-12T00:39:32.985Z,22.47
2022-12-12T00:42:00.789Z,22.17
2022-12-12T00:44:27.582Z,21.93
2022-12-12T00:46:54.432Z,25.23
2022-12-12T00:49:21.344Z,23.30
2022-12-12T00:51:48.145Z,23.33
2022-12-12T00:54:14.978Z,23.00
2022-12-12T00:56:43.027Z,24.60
2022-12-12T00:59:09.866Z,22.00
2022-12-12T01:01:37.087Z,23.50
2022-12-12T01:04:05.402Z,23.87
2022-12-12T01:06:32.280Z,24.57
2022-12-12T01:08:59.715Z,25.43
2022-12-12T01:11:26.703Z,26.63
2022-12-12T01:13:54.782Z,27.63
2022-12-12T01:16:23.150Z,27.43
2022-12-12T01:18:50.496Z,26.93
2022-12-12T01:21:19.834Z,25.10
2022-12-12T01:23:47.314Z,25.53
2022-12-12T01:26:17.610Z,26.53
2022-12-12T01:28:45.435Z,27.13
2022-12-12T01:31:12.374Z,26.37
2022-12-12T01:33:39.925Z,27.43
2022-12-12T01:36:07.314Z,26.90
2022-12-12T01:38:34.197Z,29.10
2022-12-12T01:41:01.036Z,28.47
2022-12-12T01:43:29.101Z,29.63
2022-12-12T01:45:59.449Z,26.30
2022-12-12T01:48:34.092Z,27.40
2022-12-12T01:51:04.707Z,27.33
2022-12-12T01:53:33.017Z,28.07
2022-12-12T01:56:02.367Z,28.03
2022-12-12T01:58:31.572Z,29.43
2022-12-12T02:00:59.596Z,27.87
2022-12-12T02:03:27.309Z,27.93
2022-12-12T02:05:59.892Z,28.77
2022-12-12T02:08:27.228Z,30.97
2022-12-12T02:10:54.069Z,29.80
2022-12-12T02:13:27.504Z,27.30
2022-12-12T02:16:06.275Z,28.03
2022-12-12T02:19:04.325Z,29.87
2022-12-12T02:21:41.029Z,28.23
2022-12-12T02:24:29.799Z,25.73
2022-12-12T02:27:14.717Z,27.73
2022-12-12T02:30:07.804Z,27.97
2022-12-12T02:32:59.609Z,25.97
2022-12-12T02:36:05.256Z,30.40
2022-12-12T02:38:46.703Z,27.70
2022-12-12T02:41:37.660Z,27.07
2022-12-12T02:44:11.889Z,25.73
2022-12-12T02:47:06.919Z,29.57
2022-12-12T02:49:49.262Z,28.80
2022-12-12T02:52:17.617Z,28.50
2022-12-12T02:54:45.034Z,28.03
2022-12-12T02:57:17.868Z,28.77
2022-12-12T02:59:50.502Z,28.30
2022-12-12T03:02:23.280Z,27.97
2022-12-12T03:05:11.999Z,28.73
2022-12-12T03:07:57.703Z,28.73
2022-12-12T03:10:43.029Z,27.40
2022-12-12T03:13:12.619Z,28.83
2022-12-12T03:16:09.429Z,30.00
2022-12-12T03:18:49.270Z,28.60
2022-12-12T03:21:22.525Z,28.33
2022-12-12T03:23:54.074Z,30.73
2022-12-12T03:26:25.722Z,28.43
2022-12-12T03:29:04.014Z,29.17
2022-12-12T03:31:34.582Z,29.17
2022-12-12T03:34:08.423Z,27.73
2022-12-12T03:36:40.656Z,26.60
2022-12-12T03:39:16.130Z,29.20
2022-12-12T03:41:50.313Z,27.37
2022-12-12T03:44:21.881Z,28.13
2022-12-12T03:46:54.030Z,29.93
2022-12-12T03:49:29.183Z,30.87
2022-12-12T03:52:03.354Z,28.53
2022-12-12T03:54:36.685Z,29.60
2022-12-12T03:57:15.957Z,27.20
2022-12-12T03:59:47.596Z,27.93
2022-12-12T04:02:56.208Z,27.80
2022-12-12T04:05:34.999Z,26.47
2022-12-12T04:08:11.283Z,31.97
2022-12-12T04:11:09.239Z,25.53
2022-12-12T04:13:53.027Z,27.23
2022-12-12T04:16:50.016Z,28.57
2022-12-12T04:19:58.448Z,28.53
2022-12-12T04:22:51.036Z,29.27
2022-12-12T04:25:26.327Z,28.10
2022-12-12T04:27:59.945Z,25.80
2022-12-12T04:30:29.787Z,26.10
2022-12-12T04:33:10.847Z,28.17
2022-12-12T04:35:45.464Z,22.47
2022-12-12T04:38:25.131Z,25.33
2022-12-12T04:40:58.031Z,24.30
2022-12-12T04:43:31.518Z,23.77
2022-12-12T04:46:10.703Z,24.40
2022-12-12T04:48:44.984Z,25.73
2022-12-12T04:51:18.147Z,27.13
2022-12-12T04:53:54.511Z,26.27
2022-12-12T04:56:27.428Z,28.37
2022-12-12T04:58:54.260Z,24.87
2022-12-12T05:01:53.052Z,28.87
2022-12-12T05:04:43.636Z,28.47
2022-12-12T05:07:16.740Z,27.27
2022-12-12T05:09:44.239Z,27.57
2022-12-12T05:12:11.185Z,32.30
2022-12-12T05:14:37.940Z,31.77
2022-12-12T05:17:13.498Z,32.07
2022-12-12T05:19:40.276Z,30.93
2022-12-12T05:22:07.145Z,29.73
2022-12-12T05:24:33.986Z,29.97
2022-12-12T05:27:00.774Z,30.23
2022-12-12T05:29:27.597Z,28.20
2022-12-12T05:31:54.376Z,30.90
2022-12-12T05:34:21.189Z,28.63
2022-12-12T05:36:48.017Z,31.40
2022-12-12T05:39:14.958Z,27.10
2022-12-12T05:41:42.129Z,30.77
2022-12-12T05:44:08.909Z,28.77
2022-12-12T05:46:35.703Z,32.73
2022-12-12T05:49:02.635Z,28.97
2022-12-12T05:51:29.459Z,30.83
2022-12-12T05:53:56.202Z,29.37
2022-12-12T05:56:23.180Z,30.40
2022-12-12T05:58:50.066Z,30.40
2022-12-12T06:01:16.881Z,29.23
2022-12-12T06:03:43.730Z,29.50
2022-12-12T06:06:10.610Z,30.90
2022-12-12T06:08:37.469Z,30.50
2022-12-12T06:11:08.308Z,27.43
2022-12-12T06:13:35.169Z,28.97
2022-12-12T06:16:10.127Z,29.57
2022-12-12T06:18:37.516Z,28.63
2022-12-12T06:21:09.630Z,28.97
2022-12-12T06:23:37.835Z,28.77
2022-12-12T06:26:05.819Z,26.67
2022-12-12T06:28:33.110Z,28.27
2022-12-12T06:30:59.940Z,26.73
2022-12-12T06:33:27.621Z,24.13
2022-12-12T06:36:02.441Z,26.27
2022-12-12T06:38:29.763Z,25.53
2022-12-12T06:40:56.853Z,25.37
2022-12-12T06:43:24.255Z,25.20
2022-12-12T06:45:51.186Z,23.43
2022-12-12T06:48:18.017Z,25.60
2022-12-12T06:50:46.063Z,25.23
2022-12-12T06:53:12.865Z,23.67
2022-12-12T06:55:43.892Z,25.60
2022-12-12T06:58:11.068Z,26.73
2022-12-12T07:00:37.949Z,23.60
2022-12-12T07:03:05.362Z,27.97
2022-12-12T07:05:32.270Z,27.97
2022-12-12T07:08:02.708Z,23.23
2022-12-12T07:10:30.662Z,24.17
2022-12-12T07:12:57.790Z,24.17
2022-12-12T07:15:24.578Z,26.07
2022-12-12T07:17:53.705Z,26.43
2022-12-12T07:20:21.003Z,24.60
2022-12-12T07:22:48.174Z,27.60
2022-12-12T07:25:15.499Z,24.97
2022-12-12T07:27:42.500Z,24.83
2022-12-12T07:30:09.656Z,24.93
2022-12-12T07:32:36.477Z,25.30
2022-12-12T07:35:03.459Z,26.27
2022-12-12T07:37:30.347Z,25.67
2022-12-12T07:39:57.141Z,27.83
2022-12-12T07:42:23.924Z,26.47
2022-12-12T07:44:50.715Z,28.50
2022-12-12T07:47:17.498Z,29.23
2022-12-12T07:49:44.430Z,29.70
2022-12-12T07:52:11.184Z,27.40
2022-12-12T07:54:38.077Z,27.90
2022-12-12T07:57:04.938Z,29.27
2022-12-12T07:59:31.685Z,29.77
2022-12-12T08:01:58.794Z,28.90
2022-12-12T08:04:25.764Z,32.93
2022-12-12T08:06:57.776Z,32.27
2022-12-12T08:09:27.581Z,34.90
2022-12-12T08:11:59.048Z,32.77
2022-12-12T08:14:26.450Z,32.93
2022-12-12T08:16:53.270Z,30.37
2022-12-12T08:19:20.113Z,34.10
2022-12-12T08:21:47.048Z,32.57
2022-12-12T08:24:15.627Z,31.83
2022-12-12T08:26:43.870Z,32.57
2022-12-12T08:29:11.633Z,31.90
2022-12-12T08:31:39.825Z,33.37
2022-12-12T08:34:07.341Z,34.57
2022-12-12T08:36:35.549Z,33.00
2022-12-12T08:39:06.925Z,35.43
2022-12-12T08:41:39.607Z,30.87
2022-12-12T08:44:07.916Z,30.77
2022-12-12T08:46:35.318Z,35.90
2022-12-12T08:49:02.177Z,35.80
2022-12-12T08:51:28.976Z,36.47
2022-12-12T08:53:56.014Z,35.33
2022-12-12T08:56:23.861Z,39.63
2022-12-12T08:58:50.742Z,38.33
2022-12-12T09:01:20.643Z,42.73
2022-12-12T09:03:48.264Z,38.93
2022-12-12T09:06:15.585Z,41.47
2022-12-12T09:08:42.640Z,39.57
2022-12-12T09:11:10.464Z,40.87
2022-12-12T09:13:37.810Z,40.50
2022-12-12T09:16:07.339Z,42.27
2022-12-12T09:18:34.685Z,38.83
2022-12-12T09:21:01.693Z,41.30
2022-12-12T09:23:29.140Z,41.90
2022-12-12T09:25:56.474Z,41.57
2022-12-12T09:28:25.779Z,38.53
2022-12-12T09:30:53.055Z,41.70
2022-12-12T09:33:20.212Z,39.47
2022-12-12T09:35:47.031Z,41.80
2022-12-12T09:38:14.901Z,40.40
2022-12-12T09:41:04.342Z,41.07
2022-12-12T09:43:44.061Z,38.27
2022-12-12T09:46:42.304Z,39.07
2022-12-12T09:49:29.624Z,38.43
2022-12-12T09:51:57.621Z,35.93
2022-12-12T09:54:26.714Z,36.27
2022-12-12T09:57:22.116Z,41.33
2022-12-12T09:59:55.222Z,34.40
2022-12-12T10:02:37.149Z,37.80
2022-12-12T10:05:28.758Z,38.03
2022-12-12T10:08:14.081Z,35.57
2022-12-12T10:10:43.773Z,35.87
2022-12-12T10:13:23.562Z,34.17
2022-12-12T10:15:54.821Z,35.77
2022-12-12T10:18:27.441Z,38.17
2022-12-12T10:20:57.538Z,34.97
2022-12-12T10:23:48.373Z,36.97
2022-12-12T10:26:21.995Z,34.40
2022-12-12T10:28:53.242Z,35.60
2022-12-12T10:31:54.945Z,37.53
2022-12-12T10:34:33.770Z,35.80
2022-12-12T10:37:20.535Z,34.53
2022-12-12T10:40:29.067Z,36.03
2022-12-12T10:43:00.093Z,33.47
2022-12-12T10:45:57.743Z,32.93
2022-12-12T10:48:24.738Z,35.63
2022-12-12T10:50:57.743Z,32.80
2022-12-12T10:53:24.722Z,32.37
2022-12-12T10:55:55.229Z,31.20
2022-12-12T10:58:26.450Z,37.90
2022-12-12T11:01:01.323Z,32.60
2022-12-12T11:03:41.826Z,34.80
2022-12-12T11:06:14.918Z,31.90
2022-12-12T11:08:54.881Z,32.30
2022-12-12T11:11:26.624Z,34.70
2022-12-12T11:13:56.551Z,38.47
2022-12-12T11:16:28.347Z,32.60
2022-12-12T11:18:59.929Z,32.13
2022-12-12T11:21:28.579Z,31.70
2022-12-12T11:23:58.090Z,30.60
2022-12-12T11:26:27.965Z,29.47
2022-12-12T11:29:01.228Z,31.47
2022-12-12T11:31:32.386Z,34.93
2022-12-12T11:34:01.991Z,30.43
2022-12-12T11:36:34.098Z,30.20
2022-12-12T11:39:03.591Z,30.03
2022-12-12T11:42:01.632Z,29.33
2022-12-12T11:44:35.222Z,30.43
2022-12-12T11:47:23.845Z,29.87
2022-12-12T11:49:51.871Z,29.30
2022-12-12T11:52:30.917Z,29.13
2022-12-12T11:54:59.791Z,26.03
2022-12-12T11:57:42.705Z,22.57
2022-12-12T12:00:22.403Z,24.50
2022-12-12T12:02:52.207Z,24.27
2022-12-12T12:05:44.622Z,26.17
2022-12-12T12:08:48.389Z,22.30
2022-12-12T12:11:33.416Z,20.23
2022-12-12T12:14:30.679Z,23.70
2022-12-12T12:17:24.842Z,21.47
2022-12-12T12:20:21.875Z,21.40
2022-12-12T12:23:08.314Z,22.23
2022-12-12T12:25:41.044Z,22.30
2022-12-12T12:28:35.890Z,20.00
2022-12-12T12:31:14.596Z,21.33
2022-12-12T12:34:18.975Z,21.67
2022-12-12T12:37:13.063Z,21.33
2022-12-12T12:40:08.030Z,24.57
2022-12-12T12:43:12.564Z,21.37
2022-12-12T12:46:07.108Z,22.90
2022-12-12T12:48:40.915Z,24.10
2022-12-12T12:51:17.914Z,25.23
2022-12-12T12:54:02.348Z,22.93
2022-12-12T12:56:36.726Z,21.87
2022-12-12T12:59:14.025Z,21.50
2022-12-12T13:01:46.655Z,21.80
2022-12-12T13:04:27.217Z,23.30
2022-12-12T13:07:03.399Z,25.40
2022-12-12T13:10:00.180Z,24.20
2022-12-12T13:12:36.540Z,24.23
2022-12-12T13:15:14.509Z,33.57
2022-12-12T13:17:46.763Z,31.13
2022-12-12T13:20:19.803Z,28.50
2022-12-12T13:23:19.287Z,27.37
2022-12-12T13:25:50.078Z,25.00
2022-12-12T13:28:27.191Z,20.97
2022-12-12T13:31:12.972Z,22.33
2022-12-12T13:33:48.742Z,22.97
2022-12-12T13:36:34.056Z,25.00
2022-12-12T13:39:04.331Z,23.73
2022-12-12T13:41:53.156Z,26.57
2022-12-12T13:44:38.712Z,22.87
2022-12-12T13:47:22.689Z,24.57
2022-12-12T13:50:03.410Z,22.67
2022-12-12T13:52:43.104Z,24.37
2022-12-12T13:55:13.014Z,21.70
2022-12-12T13:57:59.016Z,22.53
2022-12-12T14:00:33.440Z,22.70
2022-12-12T14:03:12.605Z,19.87
2022-12-12T14:05:45.777Z,20.87
2022-12-12T14:08:13.581Z,20.20
2022-12-12T14:10:57.426Z,19.40
2022-12-12T14:13:24.230Z,21.43
2022-12-12T14:16:18.278Z,20.53
2022-12-12T14:18:51.175Z,20.10
2022-12-12T14:21:20.795Z,20.77
2022-12-12T14:23:53.538Z,20.37
2022-12-12T14:26:40.610Z,18.97
2022-12-12T14:29:16.490Z,19.77
2022-12-12T14:32:12.408Z,18.60
2022-12-12T14:34:44.218Z,18.93
2022-12-12T14:37:51.777Z,18.70
2022-12-12T14:40:27.601Z,20.00
2022-12-12T14:43:22.237Z,20.23
2022-12-12T14:45:49.632Z,20.90
2022-12-12T14:48:36.046Z,20.93
2022-12-12T14:51:31.997Z,19.63
2022-12-12T14:54:00.347Z,20.17
2022-12-12T14:56:31.916Z,18.63
2022-12-12T14:59:06.009Z,17.50
2022-12-12T15:01:43.321Z,18.07
2022-12-12T15:04:14.081Z,20.10
2022-12-12T15:06:45.860Z,18.23
2022-12-12T15:09:29.601Z,18.63
2022-12-12T15:12:15.292Z,18.50
2022-12-12T15:14:48.139Z,17.40
2022-12-12T15:17:41.362Z,18.40
2022-12-12T15:20:20.874Z,16.77
2022-12-12T15:22:58.677Z,17.73
2022-12-12T15:25:33.601Z,19.17
2022-12-12T15:28:01.707Z,15.43
2022-12-12T15:30:39.608Z,16.27
2022-12-12T15:33:27.288Z,17.10
2022-12-12T15:36:05.079Z,18.37
2022-12-12T15:38:34.329Z,18.33
2022-12-12T15:41:09.502Z,18.10
2022-12-12T15:43:41.123Z,17.27
2022-12-12T15:46:14.480Z,18.67
2022-12-12T15:48:43.468Z,18.87
2022-12-12T15:51:11.109Z,19.60
2022-12-12T15:53:46.789Z,18.40
2022-12-12T15:56:23.225Z,20.50
2022-12-12T15:58:52.657Z,19.93
2022-12-12T16:01:26.065Z,18.93
2022-12-12T16:03:59.856Z,18.70
2022-12-12T16:06:38.423Z,17.23
2022-12-12T16:09:10.988Z,20.30
2022-12-12T16:11:39.432Z,18.13
2022-12-12T16:14:37.089Z,19.87
2022-12-12T16:17:19.928Z,19.90
2022-12-12T16:20:01.533Z,19.20
2022-12-12T16:22:46.835Z,18.27
2022-12-12T16:25:28.250Z,23.03
2022-12-12T16:28:10.307Z,19.97
2022-12-12T16:30:40.743Z,20.37
2022-12-12T16:33:28.604Z,21.03
2022-12-12T16:35:56.063Z,19.77
2022-12-12T16:38:23.581Z,22.17
2022-12-12T16:40:52.813Z,18.93
2022-12-12T16:43:21.302Z,18.83
2022-12-12T16:45:53.539Z,18.77
2022-12-12T16:48:26.124Z,20.07
2022-12-12T16:50:57.794Z,19.30
2022-12-12T16:53:24.686Z,19.43
2022-12-12T16:55:52.255Z,24.63
2022-12-12T16:58:23.432Z,21.80
2022-12-12T17:00:52.844Z,20.57
2022-12-12T17:03:21.749Z,21.37
2022-12-12T17:05:49.491Z,27.43
2022-12-12T17:08:17.146Z,27.70
2022-12-12T17:10:46.067Z,25.20
2022-12-12T17:13:24.291Z,27.80
2022-12-12T17:15:53.008Z,27.83
2022-12-12T17:18:20.129Z,28.60
2022-12-12T17:20:47.821Z,31.13
2022-12-12T17:23:30.300Z,30.00
2022-12-12T17:26:03.674Z,30.53
2022-12-12T17:28:33.553Z,31.43
2022-12-12T17:31:01.279Z,32.80
2022-12-12T17:33:28.339Z,32.67
2022-12-12T17:36:02.211Z,34.27
2022-12-12T17:38:30.520Z,35.57
2022-12-12T17:40:58.092Z,35.70
2022-12-12T17:43:26.115Z,32.00
2022-12-12T17:46:05.437Z,33.93
2022-12-12T17:48:34.464Z,37.33
2022-12-12T17:51:06.063Z,33.47
2022-12-12T17:53:37.992Z,31.97
2022-12-12T17:56:12.748Z,49.80
2022-12-12T17:58:42.403Z,35.57
2022-12-12T18:01:18.334Z,31.93
2022-12-12T18:03:45.758Z,32.37
2022-12-12T18:06:13.302Z,28.57
2022-12-12T18:08:40.857Z,34.47
2022-12-12T18:11:09.364Z,31.13
2022-12-12T18:13:41.112Z,32.67
2022-12-12T18:16:10.098Z,32.00
2022-12-12T18:18:37.498Z,31.80
2022-12-12T18:21:06.331Z,30.60
2022-12-12T18:23:33.462Z,31.37
2022-12-12T18:26:08.919Z,31.83
2022-12-12T18:28:36.655Z,30.00
2022-12-12T18:31:04.793Z,32.20
2022-12-12T18:33:32.137Z,31.17
2022-12-12T18:36:27.431Z,31.10
2022-12-12T18:38:56.315Z,31.47
2022-12-12T18:41:24.116Z,31.87
2022-12-12T18:43:50.945Z,29.90
2022-12-12T18:46:19.958Z,28.97
2022-12-12T18:48:48.321Z,31.13
2022-12-12T18:51:18.169Z,29.83
2022-12-12T18:53:45.619Z,28.87
2022-12-12T18:56:18.678Z,31.60
2022-12-12T18:58:46.015Z,30.27
2022-12-12T19:01:19.753Z,29.07
2022-12-12T19:03:49.295Z,27.73
2022-12-12T19:06:22.899Z,27.97
2022-12-12T19:08:49.947Z,28.27
2022-12-12T19:11:17.316Z,29.10
2022-12-12T19:13:44.877Z,28.47
2022-12-12T19:16:20.400Z,33.33
2022-12-12T19:18:47.571Z,31.63
2022-12-12T19:21:20.580Z,31.10
2022-12-12T19:23:48.186Z,32.93
2022-12-12T19:26:19.068Z,33.23
2022-12-12T19:28:47.698Z,32.33
2022-12-12T19:31:16.646Z,29.80
2022-12-12T19:33:44.706Z,28.10
2022-12-12T19:36:17.906Z,28.00
2022-12-12T19:38:45.986Z,28.67
2022-12-12T19:41:14.438Z,24.77
2022-12-12T19:43:42.802Z,25.93
2022-12-12T19:46:16.070Z,26.57
2022-12-12T19:48:43.912Z,24.60
2022-12-12T19:51:12.442Z,25.57
2022-12-12T19:53:41.080Z,23.83
2022-12-12T19:56:10.844Z,26.37
2022-12-12T19:58:39.103Z,25.33
2022-12-12T20:01:11.822Z,25.13
2022-12-12T20:03:39.119Z,24.67
2022-12-12T20:06:08.465Z,25.83
2022-12-12T20:08:35.993Z,26.07
2022-12-12T20:11:08.034Z,27.10
2022-12-12T20:13:35.251Z,24.87
2022-12-12T20:16:10.616Z,26.47
2022-12-12T20:18:38.268Z,30.73
2022-12-12T20:21:05.696Z,27.97
2022-12-12T20:23:42.346Z,31.70
2022-12-12T20:26:15.324Z,29.93
2022-12-12T20:28:42.768Z,29.90
2022-12-12T20:31:12.689Z,27.30
2022-12-12T20:33:40.619Z,27.53
2022-12-12T20:36:10.065Z,24.37
2022-12-12T20:38:38.546Z,22.30
2022-12-12T20:41:15.513Z,24.70
2022-12-12T20:43:42.921Z,22.70
2022-12-12T20:46:16.744Z,21.23
2022-12-12T20:48:44.579Z,20.93
2022-12-12T20:51:45.696Z,24.90
2022-12-12T20:54:04.197Z,22.93
2022-12-12T20:56:31.303Z,21.77
2022-12-12T20:59:01.086Z,23.43
2022-12-12T21:01:30.606Z,23.67
2022-12-12T21:03:59.511Z,21.93
2022-12-12T21:06:29.213Z,21.73
2022-12-12T21:08:56.312Z,23.40
2022-12-12T21:11:25.465Z,21.40
2022-12-12T21:13:53.907Z,21.80
2022-12-12T21:16:23.926Z,22.60
2022-12-12T21:18:53.161Z,21.47
2022-12-12T21:21:22.781Z,21.63
2022-12-12T21:23:50.122Z,22.20
2022-12-12T21:26:23.846Z,23.33
2022-12-12T21:28:53.806Z,22.60
2022-12-12T21:31:24.968Z,23.37
2022-12-12T21:33:52.389Z,24.57
2022-12-12T21:36:21.596Z,22.27
2022-12-12T21:38:49.335Z,21.97
2022-12-12T21:41:19.149Z,23.77
2022-12-12T21:43:46.205Z,22.13
2022-12-12T21:46:15.851Z,23.60
2022-12-12T21:48:42.853Z,23.57
2022-12-12T21:51:14.841Z,21.63
2022-12-12T21:53:42.086Z,22.27
2022-12-12T21:56:10.746Z,21.63
2022-12-12T21:58:39.133Z,20.90
2022-12-12T22:01:13.284Z,21.63
2022-12-12T22:03:40.679Z,21.93
2022-12-12T22:06:14.817Z,23.07
2022-12-12T22:08:41.722Z,21.87
2022-12-12T22:11:09.476Z,23.40
2022-12-12T22:13:40.085Z,24.87
2022-12-12T22:16:19.352Z,24.50
2022-12-12T22:18:47.202Z,25.97
2022-12-12T22:21:18.948Z,23.53
2022-12-12T22:23:47.455Z,23.07
2022-12-12T22:26:20.845Z,23.47
2022-12-12T22:28:52.246Z,24.13
2022-12-12T22:31:20.266Z,24.40
2022-12-12T22:33:48.552Z,22.90
2022-12-12T22:36:19.093Z,25.20
2022-12-12T22:38:46.042Z,27.93
2022-12-12T22:41:12.858Z,28.30
2022-12-12T22:43:39.674Z,25.27
2022-12-12T22:46:07.715Z,27.50
2022-12-12T22:48:35.975Z,26.00
2022-12-12T22:51:13.254Z,27.60
2022-12-12T22:53:44.182Z,27.20
2022-12-12T22:56:12.543Z,26.67
2022-12-12T22:58:39.726Z,25.97
2022-12-12T23:01:19.057Z,24.73
2022-12-12T23:03:46.261Z,24.97
2022-12-12T23:06:34.456Z,27.10
2022-12-12T23:09:05.101Z,27.60
2022-12-12T23:11:33.154Z,28.37
2022-12-12T23:14:03.735Z,25.43
2022-12-12T23:16:35.586Z,27.43
2022-12-12T23:19:07.170Z,26.67
2022-12-12T23:21:35.794Z,28.73
2022-12-12T23:24:03.271Z,27.90
2022-12-12T23:26:31.526Z,27.57
2022-12-12T23:28:59.119Z,26.50
2022-12-12T23:31:29.028Z,25.40
2022-12-12T23:33:58.009Z,27.70
2022-12-12T23:36:25.338Z,30.50
2022-12-12T23:39:00.801Z,27.03
2022-12-12T23:41:28.797Z,27.97
2022-12-12T23:43:56.222Z,27.37
2022-12-12T23:46:29.848Z,27.13
2022-12-12T23:48:59.698Z,27.67
2022-12-12T23:51:28.644Z,26.43
2022-12-12T23:53:57.612Z,29.90
2022-12-12T23:56:25.361Z,28.70
2022-12-12T23:58:53.146Z,33.00
